sensor_id;sensor_type;location;lat;lon;timestamp;temperature;humidity
19003;DHT22;9634;51.040;13.794;2022-07-06T00:00:48;16.40;99.90
19003;DHT22;9634;51.040;13.794;2022-07-06T00:05:50;16.30;99.90
19003;DHT22;9634;51.040;13.794;2022-07-06T00:10:53;16.40;99.90
19003;DHT22;9634;51.040;13.794;2022-07-06T00:15:57;16.30;99.90
19003;DHT22;9634;51.040;13.794;2022-07-06T00:20:59;16.20;99.90
19003;DHT22;9634;51.040;13.794;2022-07-06T00:26:02;16.30;99.90
19003;DHT22;9634;51.040;13.794;2022-07-06T00:31:06;16.50;99.90
19003;DHT22;9634;51.040;13.794;2022-07-06T00:36:09;16.40;99.90
19003;DHT22;9634;51.040;13.794;2022-07-06T00:41:12;16.30;99.90
19003;DHT22;9634;51.040;13.794;2022-07-06T00:46:16;16.40;99.90
19003;DHT22;9634;51.040;13.794;2022-07-06T00:51:19;16.10;99.90
19003;DHT22;9634;51.040;13.794;2022-07-06T00:56:22;16.10;99.90
19003;DHT22;9634;51.040;13.794;2022-07-06T01:01:25;16.20;99.90
19003;DHT22;9634;51.040;13.794;2022-07-06T01:06:28;16.10;99.90
19003;DHT22;9634;51.040;13.794;2022-07-06T01:11:31;16.10;99.90
19003;DHT22;9634;51.040;13.794;2022-07-06T01:16:35;16.30;99.90
19003;DHT22;9634;51.040;13.794;2022-07-06T01:21:39;16.20;99.90
19003;DHT22;9634;51.040;13.794;2022-07-06T01:26:41;16.00;99.90
19003;DHT22;9634;51.040;13.794;2022-07-06T01:31:46;16.10;99.90
19003;DHT22;9634;51.040;13.794;2022-07-06T01:36:50;16.10;99.90
19003;DHT22;9634;51.040;13.794;2022-07-06T01:41:53;16.20;99.90
19003;DHT22;9634;51.040;13.794;2022-07-06T01:46:56;16.10;99.90
19003;DHT22;9634;51.040;13.794;2022-07-06T01:52:00;16.10;99.90
19003;DHT22;9634;51.040;13.794;2022-07-06T01:57:03;16.10;99.90
19003;DHT22;9634;51.040;13.794;2022-07-06T02:02:05;16.20;99.90
19003;DHT22;9634;51.040;13.794;2022-07-06T02:07:09;16.20;99.90
19003;DHT22;9634;51.040;13.794;2022-07-06T02:12:12;16.10;99.90
19003;DHT22;9634;51.040;13.794;2022-07-06T02:17:14;15.90;99.90
19003;DHT22;9634;51.040;13.794;2022-07-06T02:22:18;15.60;99.90
19003;DHT22;9634;51.040;13.794;2022-07-06T02:27:20;15.40;99.90
19003;DHT22;9634;51.040;13.794;2022-07-06T02:32:23;15.20;99.90
19003;DHT22;9634;51.040;13.794;2022-07-06T02:37:28;15.20;99.90
19003;DHT22;9634;51.040;13.794;2022-07-06T02:42:31;15.10;99.90
19003;DHT22;9634;51.040;13.794;2022-07-06T02:47:34;15.10;99.90
19003;DHT22;9634;51.040;13.794;2022-07-06T02:52:41;15.10;99.90
19003;DHT22;9634;51.040;13.794;2022-07-06T02:57:45;15.20;99.90
19003;DHT22;9634;51.040;13.794;2022-07-06T03:02:48;15.40;99.90
19003;DHT22;9634;51.040;13.794;2022-07-06T03:07:52;15.40;99.90
19003;DHT22;9634;51.040;13.794;2022-07-06T03:12:55;15.20;99.90
19003;DHT22;9634;51.040;13.794;2022-07-06T03:17:57;15.10;99.90
19003;DHT22;9634;51.040;13.794;2022-07-06T03:23:01;15.00;99.90
19003;DHT22;9634;51.040;13.794;2022-07-06T03:28:04;15.20;99.90
19003;DHT22;9634;51.040;13.794;2022-07-06T03:33:07;15.20;99.90
19003;DHT22;9634;51.040;13.794;2022-07-06T03:38:11;15.20;99.90
19003;DHT22;9634;51.040;13.794;2022-07-06T03:43:16;15.20;99.90
19003;DHT22;9634;51.040;13.794;2022-07-06T03:48:18;15.30;99.90
19003;DHT22;9634;51.040;13.794;2022-07-06T03:53:23;15.40;99.90
19003;DHT22;9634;51.040;13.794;2022-07-06T03:58:25;15.40;99.90
19003;DHT22;9634;51.040;13.794;2022-07-06T04:03:27;15.40;99.90
19003;DHT22;9634;51.040;13.794;2022-07-06T04:08:31;15.40;99.90
19003;DHT22;9634;51.040;13.794;2022-07-06T04:13:35;15.60;99.90
19003;DHT22;9634;51.040;13.794;2022-07-06T04:18:38;16.00;99.90
19003;DHT22;9634;51.040;13.794;2022-07-06T04:23:42;16.40;99.90
19003;DHT22;9634;51.040;13.794;2022-07-06T04:28:46;16.90;99.90
19003;DHT22;9634;51.040;13.794;2022-07-06T04:33:49;17.30;99.90
19003;DHT22;9634;51.040;13.794;2022-07-06T04:38:53;17.30;99.90
19003;DHT22;9634;51.040;13.794;2022-07-06T04:43:56;17.30;99.90
19003;DHT22;9634;51.040;13.794;2022-07-06T04:48:58;17.40;99.90
19003;DHT22;9634;51.040;13.794;2022-07-06T04:54:06;17.50;99.90
19003;DHT22;9634;51.040;13.794;2022-07-06T04:59:10;17.30;99.90
19003;DHT22;9634;51.040;13.794;2022-07-06T05:04:12;17.00;99.90
19003;DHT22;9634;51.040;13.794;2022-07-06T05:09:16;16.70;99.90
19003;DHT22;9634;51.040;13.794;2022-07-06T05:14:21;16.50;99.90
19003;DHT22;9634;51.040;13.794;2022-07-06T05:19:23;16.50;99.90
19003;DHT22;9634;51.040;13.794;2022-07-06T05:24:27;16.40;99.90
19003;DHT22;9634;51.040;13.794;2022-07-06T05:29:29;16.40;99.90
19003;DHT22;9634;51.040;13.794;2022-07-06T05:34:32;16.60;99.90
19003;DHT22;9634;51.040;13.794;2022-07-06T05:39:37;16.60;99.90
19003;DHT22;9634;51.040;13.794;2022-07-06T05:44:40;16.50;99.90
19003;DHT22;9634;51.040;13.794;2022-07-06T05:49:43;16.60;99.90
19003;DHT22;9634;51.040;13.794;2022-07-06T05:55:13;17.10;99.90
19003;DHT22;9634;51.040;13.794;2022-07-06T06:00:17;17.90;99.90
19003;DHT22;9634;51.040;13.794;2022-07-06T06:05:26;18.10;99.90
19003;DHT22;9634;51.040;13.794;2022-07-06T06:10:35;18.50;99.90
19003;DHT22;9634;51.040;13.794;2022-07-06T06:15:41;18.20;99.90
19003;DHT22;9634;51.040;13.794;2022-07-06T06:20:44;17.90;99.90
19003;DHT22;9634;51.040;13.794;2022-07-06T06:25:48;18.00;99.90
19003;DHT22;9634;51.040;13.794;2022-07-06T06:30:51;18.20;99.90
19003;DHT22;9634;51.040;13.794;2022-07-06T06:35:53;18.30;99.90
19003;DHT22;9634;51.040;13.794;2022-07-06T06:40:57;18.50;99.90
19003;DHT22;9634;51.040;13.794;2022-07-06T06:46:00;18.50;99.90
19003;DHT22;9634;51.040;13.794;2022-07-06T06:51:03;18.40;99.90
19003;DHT22;9634;51.040;13.794;2022-07-06T06:56:08;18.40;99.90
19003;DHT22;9634;51.040;13.794;2022-07-06T07:01:10;18.80;99.90
19003;DHT22;9634;51.040;13.794;2022-07-06T07:06:13;19.00;99.90
19003;DHT22;9634;51.040;13.794;2022-07-06T07:11:17;19.50;99.90
19003;DHT22;9634;51.040;13.794;2022-07-06T07:16:19;20.20;99.90
19003;DHT22;9634;51.040;13.794;2022-07-06T07:21:21;20.20;99.90
19003;DHT22;9634;51.040;13.794;2022-07-06T07:26:25;20.70;99.90
19003;DHT22;9634;51.040;13.794;2022-07-06T07:31:28;21.40;99.90
19003;DHT22;9634;51.040;13.794;2022-07-06T07:36:30;22.80;99.90
19003;DHT22;9634;51.040;13.794;2022-07-06T07:41:33;23.20;99.90
19003;DHT22;9634;51.040;13.794;2022-07-06T07:46:35;22.40;99.90
19003;DHT22;9634;51.040;13.794;2022-07-06T07:51:38;22.30;99.90
19003;DHT22;9634;51.040;13.794;2022-07-06T07:56:44;21.80;99.90
19003;DHT22;9634;51.040;13.794;2022-07-06T08:01:46;22.00;99.90
19003;DHT22;9634;51.040;13.794;2022-07-06T08:06:48;22.90;99.90
19003;DHT22;9634;51.040;13.794;2022-07-06T08:11:52;22.70;97.70
19003;DHT22;9634;51.040;13.794;2022-07-06T08:16:55;23.20;97.50
19003;DHT22;9634;51.040;13.794;2022-07-06T08:21:58;23.80;93.60
19003;DHT22;9634;51.040;13.794;2022-07-06T08:27:03;23.00;92.60
19003;DHT22;9634;51.040;13.794;2022-07-06T08:32:06;22.30;93.40
19003;DHT22;9634;51.040;13.794;2022-07-06T08:37:08;22.00;91.50
19003;DHT22;9634;51.040;13.794;2022-07-06T08:42:12;21.90;82.30
19003;DHT22;9634;51.040;13.794;2022-07-06T08:47:19;22.20;81.60
19003;DHT22;9634;51.040;13.794;2022-07-06T08:52:23;22.80;78.10
19003;DHT22;9634;51.040;13.794;2022-07-06T08:57:27;23.70;74.60
19003;DHT22;9634;51.040;13.794;2022-07-06T09:02:30;23.30;72.30
19003;DHT22;9634;51.040;13.794;2022-07-06T09:07:32;23.80;71.50
19003;DHT22;9634;51.040;13.794;2022-07-06T09:12:37;24.80;67.60
19003;DHT22;9634;51.040;13.794;2022-07-06T09:17:40;23.80;64.80
19003;DHT22;9634;51.040;13.794;2022-07-06T09:22:42;23.70;64.90
19003;DHT22;9634;51.040;13.794;2022-07-06T09:27:47;23.50;61.40
19003;DHT22;9634;51.040;13.794;2022-07-06T09:32:53;23.10;61.70
19003;DHT22;9634;51.040;13.794;2022-07-06T09:38:04;23.60;60.90
19003;DHT22;9634;51.040;13.794;2022-07-06T09:43:12;23.20;62.20
19003;DHT22;9634;51.040;13.794;2022-07-06T09:48:16;24.50;60.00
19003;DHT22;9634;51.040;13.794;2022-07-06T09:53:20;26.30;53.30
19003;DHT22;9634;51.040;13.794;2022-07-06T09:58:26;26.40;45.80
19003;DHT22;9634;51.040;13.794;2022-07-06T10:03:29;26.80;47.80
19003;DHT22;9634;51.040;13.794;2022-07-06T10:08:32;29.40;42.30
19003;DHT22;9634;51.040;13.794;2022-07-06T10:13:40;27.00;42.00
19003;DHT22;9634;51.040;13.794;2022-07-06T10:18:44;25.20;48.00
19003;DHT22;9634;51.040;13.794;2022-07-06T10:23:47;26.50;45.80
19003;DHT22;9634;51.040;13.794;2022-07-06T10:28:52;25.80;45.90
19003;DHT22;9634;51.040;13.794;2022-07-06T10:33:55;27.00;43.90
19003;DHT22;9634;51.040;13.794;2022-07-06T10:38:59;26.90;45.30
19003;DHT22;9634;51.040;13.794;2022-07-06T10:44:24;28.50;40.70
19003;DHT22;9634;51.040;13.794;2022-07-06T10:49:27;28.10;42.80
19003;DHT22;9634;51.040;13.794;2022-07-06T10:54:39;30.30;38.60
19003;DHT22;9634;51.040;13.794;2022-07-06T11:00:00;32.00;33.50
19003;DHT22;9634;51.040;13.794;2022-07-06T11:05:10;31.50;32.00
19003;DHT22;9634;51.040;13.794;2022-07-06T11:10:14;29.00;35.00
19003;DHT22;9634;51.040;13.794;2022-07-06T11:15:47;29.00;35.60
19003;DHT22;9634;51.040;13.794;2022-07-06T11:21:20;30.50;32.10
19003;DHT22;9634;51.040;13.794;2022-07-06T11:26:24;29.00;34.00
19003;DHT22;9634;51.040;13.794;2022-07-06T11:31:28;26.90;36.70
19003;DHT22;9634;51.040;13.794;2022-07-06T11:36:32;26.90;39.00
19003;DHT22;9634;51.040;13.794;2022-07-06T11:41:35;27.80;36.30
19003;DHT22;9634;51.040;13.794;2022-07-06T11:46:39;30.50;32.80
19003;DHT22;9634;51.040;13.794;2022-07-06T11:51:42;35.80;25.30
19003;DHT22;9634;51.040;13.794;2022-07-06T11:56:49;35.00;23.20
19003;DHT22;9634;51.040;13.794;2022-07-06T12:02:03;31.00;27.20
19003;DHT22;9634;51.040;13.794;2022-07-06T12:07:06;27.70;31.50
19003;DHT22;9634;51.040;13.794;2022-07-06T12:12:10;28.40;32.10
19003;DHT22;9634;51.040;13.794;2022-07-06T12:17:15;27.50;32.70
19003;DHT22;9634;51.040;13.794;2022-07-06T12:22:24;32.20;28.50
19003;DHT22;9634;51.040;13.794;2022-07-06T12:27:26;39.70;20.40
19003;DHT22;9634;51.040;13.794;2022-07-06T12:32:30;39.00;17.00
19003;DHT22;9634;51.040;13.794;2022-07-06T12:37:34;41.30;15.70
19003;DHT22;9634;51.040;13.794;2022-07-06T12:42:45;42.10;13.90
19003;DHT22;9634;51.040;13.794;2022-07-06T12:47:59;39.30;15.60
19003;DHT22;9634;51.040;13.794;2022-07-06T12:53:02;36.90;16.50
19003;DHT22;9634;51.040;13.794;2022-07-06T12:58:05;35.30;17.70
19003;DHT22;9634;51.040;13.794;2022-07-06T13:03:09;37.00;17.40
19003;DHT22;9634;51.040;13.794;2022-07-06T13:08:12;37.80;15.60
19003;DHT22;9634;51.040;13.794;2022-07-06T13:13:14;39.80;14.70
19003;DHT22;9634;51.040;13.794;2022-07-06T13:18:19;41.00;13.70
19003;DHT22;9634;51.040;13.794;2022-07-06T13:23:21;35.00;17.00
19003;DHT22;9634;51.040;13.794;2022-07-06T13:28:23;31.30;20.90
19003;DHT22;9634;51.040;13.794;2022-07-06T13:33:27;33.90;19.40
19003;DHT22;9634;51.040;13.794;2022-07-06T13:38:30;39.40;15.00
19003;DHT22;9634;51.040;13.794;2022-07-06T13:43:32;42.60;11.90
19003;DHT22;9634;51.040;13.794;2022-07-06T13:48:39;43.40;10.70
19003;DHT22;9634;51.040;13.794;2022-07-06T13:53:42;42.60;11.00
19003;DHT22;9634;51.040;13.794;2022-07-06T13:58:44;44.80;10.60
19003;DHT22;9634;51.040;13.794;2022-07-06T14:03:47;42.90;9.90
19003;DHT22;9634;51.040;13.794;2022-07-06T14:08:50;35.40;15.90
19003;DHT22;9634;51.040;13.794;2022-07-06T14:13:53;41.40;12.90
19003;DHT22;9634;51.040;13.794;2022-07-06T14:18:57;47.60;8.60
19003;DHT22;9634;51.040;13.794;2022-07-06T14:23:59;42.80;9.50
19003;DHT22;9634;51.040;13.794;2022-07-06T14:29:02;32.60;17.00
19003;DHT22;9634;51.040;13.794;2022-07-06T14:34:06;28.20;21.90
19003;DHT22;9634;51.040;13.794;2022-07-06T14:39:08;31.60;20.60
19003;DHT22;9634;51.040;13.794;2022-07-06T14:44:13;38.60;14.20
19003;DHT22;9634;51.040;13.794;2022-07-06T14:49:16;41.30;14.60
19003;DHT22;9634;51.040;13.794;2022-07-06T14:54:18;39.80;13.60
19003;DHT22;9634;51.040;13.794;2022-07-06T14:59:20;41.10;12.80
19003;DHT22;9634;51.040;13.794;2022-07-06T15:04:24;42.50;10.50
19003;DHT22;9634;51.040;13.794;2022-07-06T15:09:26;38.20;12.30
19003;DHT22;9634;51.040;13.794;2022-07-06T15:14:31;34.60;16.30
19003;DHT22;9634;51.040;13.794;2022-07-06T15:19:35;30.80;18.80
19003;DHT22;9634;51.040;13.794;2022-07-06T15:24:37;28.90;20.30
19003;DHT22;9634;51.040;13.794;2022-07-06T15:29:39;30.70;20.10
19003;DHT22;9634;51.040;13.794;2022-07-06T15:34:43;34.00;15.90
19003;DHT22;9634;51.040;13.794;2022-07-06T15:39:45;33.00;17.30
19003;DHT22;9634;51.040;13.794;2022-07-06T15:44:48;35.40;15.30
19003;DHT22;9634;51.040;13.794;2022-07-06T15:49:53;36.50;14.00
19003;DHT22;9634;51.040;13.794;2022-07-06T15:54:56;38.30;14.40
19003;DHT22;9634;51.040;13.794;2022-07-06T15:59:58;38.90;11.80
19003;DHT22;9634;51.040;13.794;2022-07-06T16:05:01;34.90;15.30
19003;DHT22;9634;51.040;13.794;2022-07-06T16:10:05;36.30;15.00
19003;DHT22;9634;51.040;13.794;2022-07-06T16:15:08;33.70;15.70
19003;DHT22;9634;51.040;13.794;2022-07-06T16:20:12;35.80;14.90
19003;DHT22;9634;51.040;13.794;2022-07-06T16:25:16;40.10;13.30
19003;DHT22;9634;51.040;13.794;2022-07-06T16:30:19;38.70;11.70
19003;DHT22;9634;51.040;13.794;2022-07-06T16:35:23;35.40;14.30
19003;DHT22;9634;51.040;13.794;2022-07-06T16:40:25;33.10;15.90
19003;DHT22;9634;51.040;13.794;2022-07-06T16:45:28;32.10;17.30
19003;DHT22;9634;51.040;13.794;2022-07-06T16:50:32;31.80;17.90
19003;DHT22;9634;51.040;13.794;2022-07-06T16:55:34;35.90;14.70
19003;DHT22;9634;51.040;13.794;2022-07-06T17:00:38;38.40;13.20
19003;DHT22;9634;51.040;13.794;2022-07-06T17:05:42;39.30;11.90
19003;DHT22;9634;51.040;13.794;2022-07-06T17:10:48;37.40;12.40
19003;DHT22;9634;51.040;13.794;2022-07-06T17:15:51;36.00;14.00
19003;DHT22;9634;51.040;13.794;2022-07-06T17:20:55;36.20;13.70
19003;DHT22;9634;51.040;13.794;2022-07-06T17:25:57;35.30;14.00
19003;DHT22;9634;51.040;13.794;2022-07-06T17:30:59;34.00;15.30
19003;DHT22;9634;51.040;13.794;2022-07-06T17:36:04;33.70;15.70
19003;DHT22;9634;51.040;13.794;2022-07-06T17:41:07;34.00;15.80
19003;DHT22;9634;51.040;13.794;2022-07-06T17:46:09;33.20;16.50
19003;DHT22;9634;51.040;13.794;2022-07-06T17:51:13;30.40;18.20
19003;DHT22;9634;51.040;13.794;2022-07-06T17:56:15;27.40;21.00
19003;DHT22;9634;51.040;13.794;2022-07-06T18:01:19;25.30;24.50
19003;DHT22;9634;51.040;13.794;2022-07-06T18:06:23;24.20;26.00
19003;DHT22;9634;51.040;13.794;2022-07-06T18:11:28;23.40;26.80
19003;DHT22;9634;51.040;13.794;2022-07-06T18:16:30;22.70;28.60
19003;DHT22;9634;51.040;13.794;2022-07-06T18:21:34;22.30;29.60
19003;DHT22;9634;51.040;13.794;2022-07-06T18:26:37;21.90;29.40
19003;DHT22;9634;51.040;13.794;2022-07-06T18:31:39;21.50;30.10
19003;DHT22;9634;51.040;13.794;2022-07-06T18:36:43;21.20;31.10
19003;DHT22;9634;51.040;13.794;2022-07-06T18:41:46;21.10;31.60
19003;DHT22;9634;51.040;13.794;2022-07-06T18:46:48;20.90;32.50
19003;DHT22;9634;51.040;13.794;2022-07-06T18:51:52;20.70;33.00
19003;DHT22;9634;51.040;13.794;2022-07-06T18:56:54;20.40;34.10
19003;DHT22;9634;51.040;13.794;2022-07-06T19:01:56;20.30;34.40
19003;DHT22;9634;51.040;13.794;2022-07-06T19:07:00;20.10;35.00
19003;DHT22;9634;51.040;13.794;2022-07-06T19:12:03;19.80;35.70
19003;DHT22;9634;51.040;13.794;2022-07-06T19:17:06;19.70;36.60
19003;DHT22;9634;51.040;13.794;2022-07-06T19:22:10;19.70;37.00
19003;DHT22;9634;51.040;13.794;2022-07-06T19:27:12;19.80;37.20
19003;DHT22;9634;51.040;13.794;2022-07-06T19:32:14;19.60;37.40
19003;DHT22;9634;51.040;13.794;2022-07-06T19:37:18;19.50;38.80
19003;DHT22;9634;51.040;13.794;2022-07-06T19:42:20;19.50;38.30
19003;DHT22;9634;51.040;13.794;2022-07-06T19:47:23;19.50;38.00
19003;DHT22;9634;51.040;13.794;2022-07-06T19:52:26;19.40;37.70
19003;DHT22;9634;51.040;13.794;2022-07-06T19:57:29;19.20;37.70
19003;DHT22;9634;51.040;13.794;2022-07-06T20:02:31;19.00;38.40
19003;DHT22;9634;51.040;13.794;2022-07-06T20:07:35;18.90;38.30
19003;DHT22;9634;51.040;13.794;2022-07-06T20:12:37;18.80;38.70
19003;DHT22;9634;51.040;13.794;2022-07-06T20:17:40;18.80;39.30
19003;DHT22;9634;51.040;13.794;2022-07-06T20:22:43;18.80;39.30
19003;DHT22;9634;51.040;13.794;2022-07-06T20:27:47;18.60;39.80
19003;DHT22;9634;51.040;13.794;2022-07-06T20:32:49;18.60;39.90
19003;DHT22;9634;51.040;13.794;2022-07-06T20:37:53;18.70;39.50
19003;DHT22;9634;51.040;13.794;2022-07-06T20:42:55;18.60;39.80
19003;DHT22;9634;51.040;13.794;2022-07-06T20:47:57;18.40;40.10
19003;DHT22;9634;51.040;13.794;2022-07-06T20:53:01;18.30;40.90
19003;DHT22;9634;51.040;13.794;2022-07-06T20:58:06;18.20;41.50
19003;DHT22;9634;51.040;13.794;2022-07-06T21:03:09;18.20;41.10
19003;DHT22;9634;51.040;13.794;2022-07-06T21:08:13;18.30;41.60
19003;DHT22;9634;51.040;13.794;2022-07-06T21:13:15;18.20;41.90
19003;DHT22;9634;51.040;13.794;2022-07-06T21:18:17;18.10;42.70
19003;DHT22;9634;51.040;13.794;2022-07-06T21:23:21;18.20;42.90
19003;DHT22;9634;51.040;13.794;2022-07-06T21:28:25;18.40;43.00
19003;DHT22;9634;51.040;13.794;2022-07-06T21:33:28;18.50;43.10
19003;DHT22;9634;51.040;13.794;2022-07-06T21:38:32;18.50;43.20
19003;DHT22;9634;51.040;13.794;2022-07-06T21:43:35;18.30;44.50
19003;DHT22;9634;51.040;13.794;2022-07-06T21:48:38;18.10;45.00
19003;DHT22;9634;51.040;13.794;2022-07-06T21:53:42;18.00;46.20
19003;DHT22;9634;51.040;13.794;2022-07-06T21:58:44;17.70;47.30
19003;DHT22;9634;51.040;13.794;2022-07-06T22:03:47;17.40;48.70
19003;DHT22;9634;51.040;13.794;2022-07-06T22:08:50;17.20;50.60
19003;DHT22;9634;51.040;13.794;2022-07-06T22:13:54;17.00;52.10
19003;DHT22;9634;51.040;13.794;2022-07-06T22:18:56;16.90;53.80
19003;DHT22;9634;51.040;13.794;2022-07-06T22:24:00;16.70;55.50
19003;DHT22;9634;51.040;13.794;2022-07-06T22:29:02;16.60;57.70
19003;DHT22;9634;51.040;13.794;2022-07-06T22:34:05;16.70;57.20
19003;DHT22;9634;51.040;13.794;2022-07-06T22:39:08;16.80;58.20
19003;DHT22;9634;51.040;13.794;2022-07-06T22:44:11;16.70;59.10
19003;DHT22;9634;51.040;13.794;2022-07-06T22:49:13;16.40;60.70
19003;DHT22;9634;51.040;13.794;2022-07-06T22:54:17;16.00;64.40
19003;DHT22;9634;51.040;13.794;2022-07-06T22:59:20;15.70;73.00
19003;DHT22;9634;51.040;13.794;2022-07-06T23:04:23;15.80;77.70
19003;DHT22;9634;51.040;13.794;2022-07-06T23:09:27;15.40;85.20
19003;DHT22;9634;51.040;13.794;2022-07-06T23:14:29;15.00;91.90
19003;DHT22;9634;51.040;13.794;2022-07-06T23:19:32;15.00;95.60
19003;DHT22;9634;51.040;13.794;2022-07-06T23:24:39;14.80;99.80
19003;DHT22;9634;51.040;13.794;2022-07-06T23:29:41;14.60;99.90
19003;DHT22;9634;51.040;13.794;2022-07-06T23:34:43;14.60;99.90
19003;DHT22;9634;51.040;13.794;2022-07-06T23:39:48;14.60;99.90
19003;DHT22;9634;51.040;13.794;2022-07-06T23:44:50;14.70;99.90
19003;DHT22;9634;51.040;13.794;2022-07-06T23:49:53;14.80;99.90
19003;DHT22;9634;51.040;13.794;2022-07-06T23:54:56;14.60;99.90
19003;DHT22;9634;51.040;13.794;2022-07-06T23:59:59;14.50;99.90
